Time;durP1;ratioP1;P1;durP2;ratioP2;P2;SDS_P1;SDS_P2;PMS_P1;PMS_P2;Temp;Humidity;BMP_temperature;BMP_pressure;BME280_temperature;BME280_humidity;BME280_pressure;Samples;Min_cycle;Max_cycle;Signal;HPM_P1;HPM_P2
2021/04/18 00:01:55;;;;;;;7.38;3.13;;;6.20;70.20;;;;;;4887844;29;20024;-90
2021/04/18 00:04:21;;;;;;;4.30;2.88;;;6.20;70.40;;;;;;4893213;29;20024;-90
2021/04/18 00:06:46;;;;;;;8.32;3.50;;;6.20;70.50;;;;;;4908067;29;20056;-91
2021/04/18 00:09:12;;;;;;;4.95;3.00;;;6.10;70.50;;;;;;4888386;29;20128;-90
2021/04/18 00:11:41;;;;;;;6.88;3.70;;;6.10;70.60;;;;;;4886978;29;20493;-91
2021/04/18 00:14:08;;;;;;;5.30;2.85;;;6.10;70.80;;;;;;4884585;29;20056;-90
2021/04/18 00:16:34;;;;;;;5.75;3.20;;;6.00;70.80;;;;;;4883644;29;20033;-90
2021/04/18 00:19:00;;;;;;;4.90;3.17;;;6.00;71.00;;;;;;4882520;29;20025;-90
2021/04/18 00:21:26;;;;;;;5.72;2.88;;;6.00;71.20;;;;;;4901081;29;20032;-90
2021/04/18 00:23:52;;;;;;;7.43;3.13;;;5.90;71.30;;;;;;4885371;29;20031;-89
2021/04/18 00:26:18;;;;;;;5.93;3.22;;;5.90;71.40;;;;;;4883890;29;20048;-90
2021/04/18 00:28:44;;;;;;;6.50;3.28;;;5.90;71.60;;;;;;4883079;29;20032;-90
2021/04/18 00:31:10;;;;;;;6.40;3.20;;;5.80;71.50;;;;;;4872360;29;20080;-89
2021/04/18 00:33:36;;;;;;;6.05;3.60;;;5.80;71.60;;;;;;4879938;29;20024;-89
2021/04/18 00:36:02;;;;;;;5.25;3.03;;;5.80;71.70;;;;;;4881071;29;20041;-89
2021/04/18 00:38:27;;;;;;;8.00;3.40;;;5.70;71.70;;;;;;4879618;29;20033;-90
2021/04/18 00:40:53;;;;;;;6.55;3.42;;;5.70;71.90;;;;;;4879658;29;20128;-90
2021/04/18 00:43:19;;;;;;;6.13;3.55;;;5.60;72.10;;;;;;4882328;29;20021;-89
2021/04/18 00:45:44;;;;;;;7.45;3.30;;;5.60;72.20;;;;;;4881045;29;20049;-90
2021/04/18 00:48:10;;;;;;;8.82;3.65;;;5.50;72.40;;;;;;4880112;29;20121;-91
2021/04/18 00:50:39;;;;;;;7.95;3.65;;;5.50;72.50;;;;;;4880428;29;20463;-90
2021/04/18 00:53:07;;;;;;;8.45;3.22;;;5.40;72.70;;;;;;4879588;29;20400;-90
2021/04/18 00:55:35;;;;;;;5.35;3.20;;;5.40;72.70;;;;;;4879604;29;20633;-90
2021/04/18 00:58:01;;;;;;;6.70;3.20;;;5.40;72.90;;;;;;4879386;29;20025;-90
2021/04/18 01:00:27;;;;;;;4.85;2.90;;;5.30;72.90;;;;;;4879073;29;20085;-89
2021/04/18 01:02:53;;;;;;;5.63;2.85;;;5.20;73.00;;;;;;4878973;29;20040;-90
2021/04/18 01:05:19;;;;;;;5.07;3.10;;;5.20;73.20;;;;;;4880105;29;20037;-91
2021/04/18 01:07:46;;;;;;;8.63;3.10;;;5.20;73.30;;;;;;4881599;29;20070;-89
2021/04/18 01:10:13;;;;;;;5.43;2.85;;;5.20;73.40;;;;;;4877909;29;20029;-90
2021/04/18 01:12:39;;;;;;;6.70;3.25;;;5.10;73.40;;;;;;4878338;29;20483;-90
2021/04/18 01:15:07;;;;;;;6.18;3.13;;;5.10;73.50;;;;;;4879762;29;20049;-90
2021/04/18 01:17:32;;;;;;;7.82;3.00;;;5.00;73.60;;;;;;4878142;29;20052;-89
2021/04/18 01:19:58;;;;;;;7.43;3.40;;;5.00;73.70;;;;;;4862899;29;20048;-90
2021/04/18 01:22:24;;;;;;;7.57;3.28;;;5.00;73.70;;;;;;4862536;29;20285;-90
2021/04/18 01:24:50;;;;;;;7.07;3.28;;;5.00;73.80;;;;;;4862526;29;20112;-90
2021/04/18 01:27:17;;;;;;;7.40;3.25;;;4.90;73.90;;;;;;4879144;29;20437;-89
2021/04/18 01:29:43;;;;;;;7.18;3.70;;;4.90;73.90;;;;;;4879304;29;20041;-88
2021/04/18 01:32:09;;;;;;;7.00;3.10;;;4.80;73.90;;;;;;4868179;29;20036;-90
2021/04/18 01:34:41;;;;;;;5.18;3.00;;;4.80;74.00;;;;;;4869595;29;20037;-89
2021/04/18 01:37:07;;;;;;;6.07;2.92;;;4.80;74.20;;;;;;4869922;29;20029;-90
2021/04/18 01:39:34;;;;;;;9.07;3.33;;;4.70;74.20;;;;;;4869449;29;20115;-89
2021/04/18 01:42:00;;;;;;;6.38;3.38;;;4.60;74.30;;;;;;4869171;29;20085;-89
2021/04/18 01:44:26;;;;;;;6.10;3.63;;;4.60;74.50;;;;;;4869371;29;20028;-89
2021/04/18 01:46:52;;;;;;;6.18;3.40;;;4.60;74.60;;;;;;4869099;29;20053;-89
2021/04/18 01:49:17;;;;;;;5.53;3.05;;;4.50;74.70;;;;;;4869565;29;20460;-89
2021/04/18 01:51:43;;;;;;;8.15;4.18;;;4.50;74.90;;;;;;4869373;29;20039;-90
2021/04/18 01:54:09;;;;;;;7.82;3.47;;;4.40;75.00;;;;;;4872550;29;20502;-89
2021/04/18 01:56:34;;;;;;;9.57;4.00;;;4.40;75.10;;;;;;4874534;29;20093;-89
2021/04/18 01:59:00;;;;;;;6.97;3.30;;;4.40;75.20;;;;;;4880934;29;20111;-90
2021/04/18 02:01:26;;;;;;;7.82;3.53;;;4.30;75.20;;;;;;4904640;29;20432;-90
2021/04/18 02:03:52;;;;;;;7.97;3.90;;;4.30;75.30;;;;;;4904381;29;20119;-89
2021/04/18 02:06:17;;;;;;;8.18;3.65;;;4.30;75.40;;;;;;4904442;29;20071;-89
2021/04/18 02:08:43;;;;;;;7.47;3.60;;;4.20;75.50;;;;;;4904201;29;20072;-89
2021/04/18 02:11:09;;;;;;;9.35;3.22;;;4.20;75.60;;;;;;4904064;29;20467;-89
2021/04/18 02:13:35;;;;;;;6.60;3.67;;;4.20;75.70;;;;;;4904774;29;20037;-90
2021/04/18 02:16:00;;;;;;;7.60;3.47;;;4.20;75.70;;;;;;4904914;29;20028;-90
2021/04/18 02:18:26;;;;;;;5.30;2.95;;;4.10;75.80;;;;;;4903928;29;20040;-89
2021/04/18 02:20:52;;;;;;;6.70;3.38;;;4.10;75.90;;;;;;4887961;29;20076;-90
2021/04/18 02:23:18;;;;;;;5.47;3.28;;;4.10;76.10;;;;;;4887962;29;20025;-90
2021/04/18 02:25:44;;;;;;;5.20;3.08;;;4.00;76.10;;;;;;4904324;29;20037;-89
2021/04/18 02:28:09;;;;;;;7.22;3.70;;;4.00;76.20;;;;;;4888048;29;20064;-89
2021/04/18 02:30:36;;;;;;;5.85;3.25;;;4.00;76.30;;;;;;4888775;29;20044;-90
2021/04/18 02:33:01;;;;;;;5.28;2.85;;;4.00;76.30;;;;;;4889451;29;20170;-89
2021/04/18 02:35:27;;;;;;;8.50;3.90;;;4.00;76.30;;;;;;4905735;29;20115;-90
2021/04/18 02:37:53;;;;;;;6.10;3.45;;;3.90;76.40;;;;;;4887999;29;20489;-89
2021/04/18 02:40:18;;;;;;;6.03;3.45;;;3.90;76.50;;;;;;4888304;29;20044;-89
2021/04/18 02:42:44;;;;;;;6.55;3.42;;;3.90;76.60;;;;;;4885986;29;20489;-89
2021/04/18 02:45:11;;;;;;;6.07;3.20;;;3.80;76.70;;;;;;4884788;29;20035;-89
2021/04/18 02:47:37;;;;;;;4.00;2.80;;;3.80;76.80;;;;;;4884675;29;20029;-89
2021/04/18 02:50:05;;;;;;;5.50;3.40;;;3.80;76.90;;;;;;4891290;29;20029;-89
2021/04/18 02:52:31;;;;;;;10.07;3.65;;;3.70;76.80;;;;;;4910808;29;20021;-89
2021/04/18 02:54:57;;;;;;;5.57;3.15;;;3.70;76.90;;;;;;4909045;29;20033;-89
2021/04/18 02:57:22;;;;;;;5.13;2.72;;;3.70;77.00;;;;;;4890995;29;20391;-90
2021/04/18 02:59:48;;;;;;;5.68;2.90;;;3.60;77.10;;;;;;4886269;29;20035;-89
2021/04/18 03:02:14;;;;;;;5.57;3.28;;;3.60;77.90;;;;;;4885109;29;20456;-90
2021/04/18 03:04:39;;;;;;;5.82;2.70;;;3.60;78.00;;;;;;4883572;29;20037;-89
2021/04/18 03:07:05;;;;;;;7.00;3.45;;;3.60;77.40;;;;;;4900913;29;20041;-89
2021/04/18 03:09:30;;;;;;;6.38;3.47;;;3.50;77.50;;;;;;4886082;29;20035;-90
2021/04/18 03:11:56;;;;;;;8.30;3.05;;;3.50;77.50;;;;;;4886170;29;20411;-90
2021/04/18 03:14:22;;;;;;;6.28;3.05;;;3.50;77.60;;;;;;4885698;29;20024;-89
2021/04/18 03:16:47;;;;;;;6.35;3.15;;;3.50;77.60;;;;;;4884894;29;20029;-89
2021/04/18 03:19:13;;;;;;;5.53;3.13;;;3.40;78.40;;;;;;4884783;29;20428;-90
2021/04/18 03:21:39;;;;;;;6.40;3.33;;;3.40;77.70;;;;;;4886055;29;20036;-90
2021/04/18 03:24:05;;;;;;;6.35;3.20;;;3.40;77.70;;;;;;4883780;29;20040;-91
2021/04/18 03:26:31;;;;;;;5.95;3.28;;;3.30;77.70;;;;;;4884749;29;20036;-89
2021/04/18 03:28:56;;;;;;;7.18;3.50;;;3.30;77.80;;;;;;4899833;29;20031;-89
2021/04/18 03:31:22;;;;;;;8.05;3.22;;;3.30;77.90;;;;;;4883022;29;20029;-89
2021/04/18 03:33:48;;;;;;;7.57;3.42;;;3.30;78.00;;;;;;4882682;29;20092;-88
2021/04/18 03:36:13;;;;;;;6.78;2.90;;;3.20;78.00;;;;;;4883360;29;20123;-89
2021/04/18 03:38:39;;;;;;;7.72;3.28;;;3.20;78.10;;;;;;4883553;29;20521;-89
2021/04/18 03:41:05;;;;;;;6.78;3.08;;;3.20;78.20;;;;;;4883336;29;20398;-89
2021/04/18 03:43:31;;;;;;;7.32;3.67;;;3.20;78.30;;;;;;4883328;29;20084;-90
2021/04/18 03:45:57;;;;;;;6.72;3.25;;;3.20;78.40;;;;;;4860560;29;659012;-89
2021/04/18 03:48:23;;;;;;;7.72;3.00;;;3.20;78.50;;;;;;4883398;29;20035;-89
2021/04/18 03:50:49;;;;;;;6.05;3.13;;;3.10;78.50;;;;;;4883587;29;20123;-90
2021/04/18 03:53:15;;;;;;;9.80;3.63;;;3.10;78.50;;;;;;4882925;29;20604;-90
2021/04/18 03:55:41;;;;;;;6.72;3.22;;;3.10;79.30;;;;;;4903071;29;20048;-89
2021/04/18 03:58:06;;;;;;;7.63;3.15;;;3.10;78.70;;;;;;4887783;29;20036;-90
2021/04/18 04:00:33;;;;;;;7.25;3.30;;;3.00;78.70;;;;;;4883295;29;20499;-89
2021/04/18 04:02:59;;;;;;;6.15;3.22;;;3.00;78.80;;;;;;4884181;29;20063;-90
2021/04/18 04:05:24;;;;;;;8.02;3.20;;;3.00;79.00;;;;;;4884323;29;20060;-89
2021/04/18 04:07:50;;;;;;;8.10;3.08;;;3.00;79.00;;;;;;4882788;29;20518;-91
2021/04/18 04:10:16;;;;;;;9.63;3.65;;;2.90;79.10;;;;;;4882842;29;20037;-89
2021/04/18 04:12:41;;;;;;;5.72;3.33;;;2.90;79.20;;;;;;4899848;29;20033;-89
2021/04/18 04:15:08;;;;;;;6.38;3.38;;;2.90;79.30;;;;;;4882938;29;20052;-89
2021/04/18 04:17:33;;;;;;;10.13;3.72;;;2.90;79.40;;;;;;4882928;29;20562;-89
2021/04/18 04:19:59;;;;;;;7.75;3.72;;;2.90;79.50;;;;;;4882972;29;20032;-90
2021/04/18 04:22:25;;;;;;;4.85;2.78;;;2.90;79.60;;;;;;4899892;29;20036;-90
2021/04/18 04:24:53;;;;;;;6.63;3.70;;;2.90;79.70;;;;;;4883370;29;20032;-90
2021/04/18 04:27:19;;;;;;;5.88;3.00;;;2.80;79.80;;;;;;4883302;29;20172;-89
2021/04/18 04:29:49;;;;;;;7.95;3.55;;;2.80;79.90;;;;;;4883377;29;20024;-90
2021/04/18 04:32:15;;;;;;;5.72;3.03;;;2.80;80.00;;;;;;4883324;29;20043;-90
2021/04/18 04:34:41;;;;;;;9.25;3.22;;;2.70;80.00;;;;;;4899552;29;20021;-89
2021/04/18 04:37:06;;;;;;;8.23;3.35;;;2.70;80.10;;;;;;4883129;29;20041;-89
2021/04/18 04:39:33;;;;;;;7.10;3.47;;;2.70;80.10;;;;;;4899627;29;20403;-90
2021/04/18 04:42:00;;;;;;;9.27;3.25;;;2.70;80.20;;;;;;4883085;29;20060;-90
2021/04/18 04:44:28;;;;;;;7.47;3.72;;;2.70;80.40;;;;;;4885206;29;20025;-90
2021/04/18 04:46:54;;;;;;;5.53;3.13;;;2.70;80.40;;;;;;4885311;29;20511;-89
2021/04/18 04:49:19;;;;;;;5.97;3.20;;;2.60;80.40;;;;;;4884838;29;20076;-91
2021/04/18 04:51:45;;;;;;;10.65;3.70;;;2.60;80.60;;;;;;4900696;29;20521;-89
2021/04/18 04:54:11;;;;;;;7.28;3.20;;;2.60;80.60;;;;;;4883808;29;20096;-90
2021/04/18 04:56:36;;;;;;;5.90;3.55;;;2.60;80.80;;;;;;4883699;29;20559;-89
2021/04/18 04:59:02;;;;;;;8.95;3.45;;;2.50;80.90;;;;;;4882856;29;20032;-90
2021/04/18 05:01:28;;;;;;;7.30;3.40;;;2.50;81.00;;;;;;4898914;29;20028;-89
2021/04/18 05:03:53;;;;;;;8.98;3.50;;;2.50;81.20;;;;;;4882663;29;20498;-89
2021/04/18 05:06:19;;;;;;;6.70;3.42;;;2.50;82.10;;;;;;4881959;29;20069;-90
2021/04/18 05:08:44;;;;;;;6.82;3.47;;;2.40;81.40;;;;;;4881881;29;20064;-89
2021/04/18 05:11:10;;;;;;;10.05;4.20;;;2.40;81.60;;;;;;4881672;29;20127;-90
2021/04/18 05:13:36;;;;;;;7.35;3.13;;;2.40;81.80;;;;;;4881608;29;20064;-90
2021/04/18 05:16:01;;;;;;;7.72;3.10;;;2.40;81.90;;;;;;4881849;29;20123;-90
2021/04/18 05:18:27;;;;;;;5.85;3.63;;;2.40;82.70;;;;;;4881347;29;20037;-89
2021/04/18 05:20:53;;;;;;;7.22;3.47;;;2.40;82.20;;;;;;4881989;29;20402;-89
2021/04/18 05:23:19;;;;;;;8.45;4.30;;;2.40;82.40;;;;;;4899484;29;20029;-89
2021/04/18 05:25:45;;;;;;;8.30;3.72;;;2.40;82.50;;;;;;4882224;29;20128;-90
2021/04/18 05:28:10;;;;;;;10.20;3.80;;;2.30;82.70;;;;;;4882622;29;20032;-90
2021/04/18 05:30:36;;;;;;;6.85;3.30;;;2.20;83.00;;;;;;4881698;29;20387;-89
2021/04/18 05:33:02;;;;;;;6.55;3.58;;;2.20;83.40;;;;;;4898446;29;20487;-89
2021/04/18 05:35:27;;;;;;;7.97;4.15;;;2.20;83.60;;;;;;4881534;29;20033;-89
2021/04/18 05:37:53;;;;;;;8.93;4.40;;;2.10;83.80;;;;;;4882733;29;20115;-89
2021/04/18 05:40:19;;;;;;;9.75;4.57;;;2.10;84.00;;;;;;4889641;29;20032;-90
2021/04/18 05:42:45;;;;;;;11.07;4.70;;;2.10;84.40;;;;;;4889665;29;20029;-89
2021/04/18 05:45:11;;;;;;;10.60;4.07;;;2.20;84.60;;;;;;4889945;29;20115;-89
2021/04/18 05:47:36;;;;;;;7.63;4.00;;;2.20;84.80;;;;;;4907668;29;20048;-90
2021/04/18 05:50:06;;;;;;;10.45;4.82;;;2.20;85.00;;;;;;4908783;29;20024;-89
2021/04/18 05:52:31;;;;;;;9.98;4.85;;;2.20;85.20;;;;;;4888914;29;20547;-88
2021/04/18 05:54:57;;;;;;;11.65;4.63;;;2.20;85.40;;;;;;4885595;29;20021;-89
2021/04/18 05:57:23;;;;;;;10.85;4.13;;;2.20;86.10;;;;;;4884902;29;20035;-89
2021/04/18 05:59:48;;;;;;;11.95;4.68;;;2.20;85.80;;;;;;4915193;29;20395;-90
2021/04/18 06:02:14;;;;;;;12.85;4.35;;;2.30;86.00;;;;;;4881797;29;20032;-91
2021/04/18 06:04:40;;;;;;;11.63;4.70;;;2.30;86.10;;;;;;4882112;29;20025;-90
2021/04/18 06:07:05;;;;;;;9.35;3.95;;;2.30;86.30;;;;;;4882740;29;20033;-89
2021/04/18 06:09:31;;;;;;;8.30;4.15;;;2.30;86.50;;;;;;4883443;29;20043;-89
2021/04/18 06:11:57;;;;;;;12.07;4.97;;;2.30;86.70;;;;;;4883407;29;20116;-90
2021/04/18 06:14:23;;;;;;;13.05;4.28;;;2.40;87.00;;;;;;4883775;29;20028;-89
2021/04/18 06:16:50;;;;;;;15.65;5.20;;;2.40;87.10;;;;;;4881120;29;20029;-90
2021/04/18 06:19:17;;;;;;;8.43;4.30;;;2.40;87.30;;;;;;4885238;29;20031;-89
2021/04/18 06:21:43;;;;;;;9.07;4.93;;;2.40;87.60;;;;;;4884695;29;20510;-90
2021/04/18 06:24:09;;;;;;;8.25;4.40;;;2.40;88.50;;;;;;4900609;29;20036;-89
2021/04/18 06:26:35;;;;;;;8.68;4.55;;;2.40;88.20;;;;;;4887401;29;20558;-89
2021/04/18 06:29:01;;;;;;;8.73;4.25;;;2.50;88.50;;;;;;4887220;29;20060;-89
2021/04/18 06:31:27;;;;;;;8.65;4.55;;;2.50;88.60;;;;;;4901326;29;20056;-88
2021/04/18 06:33:55;;;;;;;9.70;4.57;;;2.50;88.80;;;;;;4917427;29;20020;-89
2021/04/18 06:36:31;;;;;;;8.52;4.25;;;2.50;88.90;;;;;;4885994;29;20036;-90
2021/04/18 06:38:58;;;;;;;7.22;4.47;;;2.60;89.30;;;;;;4884520;29;20024;-89
2021/04/18 06:41:24;;;;;;;14.75;5.22;;;2.70;89.40;;;;;;4885796;29;20499;-90
2021/04/18 06:43:51;;;;;;;10.88;4.45;;;2.70;89.50;;;;;;4885739;29;20025;-89
2021/04/18 06:46:18;;;;;;;9.20;4.72;;;2.70;89.50;;;;;;4885017;29;20139;-89
2021/04/18 06:48:45;;;;;;;9.77;4.93;;;2.70;90.00;;;;;;4885841;29;20031;-89
2021/04/18 06:51:11;;;;;;;8.77;4.95;;;2.60;90.20;;;;;;4885481;29;20021;-89
2021/04/18 06:53:37;;;;;;;11.52;4.57;;;2.60;90.40;;;;;;4885232;29;20024;-89
2021/04/18 06:56:05;;;;;;;6.97;3.72;;;2.70;90.60;;;;;;4885378;29;20084;-91
2021/04/18 06:58:32;;;;;;;7.97;4.00;;;2.80;90.70;;;;;;4902703;29;20039;-92
2021/04/18 07:00:58;;;;;;;8.88;4.65;;;2.80;90.60;;;;;;4885564;29;20028;-91
2021/04/18 07:03:25;;;;;;;14.45;4.65;;;2.90;90.70;;;;;;4885805;29;20111;-90
2021/04/18 07:05:54;;;;;;;7.97;4.45;;;2.90;90.80;;;;;;4900381;29;20065;-90
2021/04/18 07:08:31;;;;;;;11.85;4.88;;;3.00;90.80;;;;;;4885741;29;20025;-88
2021/04/18 07:11:19;;;;;;;15.13;5.13;;;3.10;90.90;;;;;;4881827;29;20049;-89
2021/04/18 07:13:47;;;;;;;9.75;4.50;;;3.20;91.00;;;;;;4898124;29;20040;-89
2021/04/18 07:16:32;;;;;;;15.07;5.57;;;3.20;91.00;;;;;;4884287;29;20025;-89
2021/04/18 07:19:00;;;;;;;11.02;4.75;;;3.30;91.10;;;;;;4898595;29;20024;-90
2021/04/18 07:21:46;;;;;;;13.15;6.50;;;3.40;91.20;;;;;;4915219;29;20103;-90
2021/04/18 07:24:12;;;;;;;11.25;5.00;;;3.50;91.20;;;;;;4901421;29;20051;-89
2021/04/18 07:26:37;;;;;;;12.52;4.90;;;3.60;91.20;;;;;;4884001;29;20104;-89
2021/04/18 07:29:20;;;;;;;11.88;5.20;;;3.60;91.30;;;;;;4883263;29;20035;-89
2021/04/18 07:31:47;;;;;;;10.45;4.55;;;3.80;91.40;;;;;;4885010;29;20084;-89
2021/04/18 07:34:14;;;;;;;14.27;5.00;;;3.80;91.40;;;;;;4881810;29;20033;-90
2021/04/18 07:36:43;;;;;;;9.27;4.28;;;3.90;91.50;;;;;;4884048;29;20039;-90
2021/04/18 07:39:13;;;;;;;11.82;5.20;;;4.00;91.50;;;;;;4884884;29;20040;-89
2021/04/18 07:41:43;;;;;;;15.82;4.90;;;4.10;91.50;;;;;;4885676;29;20360;-89
2021/04/18 07:44:16;;;;;;;9.70;4.95;;;4.20;91.50;;;;;;4885054;29;20029;-89
2021/04/18 07:46:54;;;;;;;11.43;4.95;;;4.30;91.60;;;;;;4888939;29;20076;-88
2021/04/18 07:49:21;;;;;;;13.18;4.85;;;4.40;91.70;;;;;;4904522;29;20557;-90
2021/04/18 07:51:48;;;;;;;15.13;5.10;;;4.50;91.70;;;;;;4902160;29;20029;-89
2021/04/18 07:54:16;;;;;;;11.35;4.80;;;4.60;91.60;;;;;;4903216;29;20033;-91
2021/04/18 07:56:47;;;;;;;11.80;4.78;;;4.60;91.70;;;;;;4886894;29;20024;-90
2021/04/18 07:59:14;;;;;;;10.07;4.43;;;4.80;91.80;;;;;;4900229;29;20038;-91
2021/04/18 08:01:40;;;;;;;11.77;6.22;;;4.80;91.80;;;;;;4902931;29;20108;-90
2021/04/18 08:04:09;;;;;;;16.00;5.25;;;4.90;91.80;;;;;;4885486;29;20025;-90
2021/04/18 08:06:35;;;;;;;11.02;4.85;;;5.00;91.90;;;;;;4883130;29;20053;-90
2021/04/18 08:09:16;;;;;;;16.00;5.63;;;5.10;91.80;;;;;;4902381;29;20035;-92
2021/04/18 08:11:41;;;;;;;12.10;5.53;;;5.30;91.80;;;;;;4888845;29;20451;-91
2021/04/18 08:14:16;;;;;;;14.88;5.05;;;5.40;91.70;;;;;;4898289;29;20076;-92
2021/04/18 08:16:42;;;;;;;14.88;5.70;;;5.50;91.70;;;;;;4900721;29;20483;-90
2021/04/18 08:19:10;;;;;;;13.88;4.95;;;5.60;91.70;;;;;;4883982;29;20017;-90
2021/04/18 08:21:37;;;;;;;12.10;5.05;;;5.80;91.70;;;;;;4883686;29;20040;-91
2021/04/18 08:24:19;;;;;;;8.57;4.43;;;5.90;91.50;;;;;;4883813;29;20033;-91
2021/04/18 08:27:16;;;;;;;17.70;6.18;;;6.10;91.40;;;;;;4898005;29;20119;-91
2021/04/18 08:30:03;;;;;;;9.48;4.43;;;6.20;91.20;;;;;;4875901;29;20036;-90
2021/04/18 08:32:47;;;;;;;9.57;4.70;;;6.30;90.90;;;;;;4900858;29;20032;-90
2021/04/18 08:35:19;;;;;;;9.85;5.07;;;6.40;90.60;;;;;;4890093;29;20439;-91
2021/04/18 08:37:44;;;;;;;13.40;4.88;;;6.40;90.40;;;;;;4892778;29;20048;-91
2021/04/18 08:40:10;;;;;;;11.10;5.18;;;6.50;90.30;;;;;;4907588;29;20052;-92
2021/04/18 08:42:37;;;;;;;10.70;5.82;;;6.60;90.10;;;;;;4888239;29;20061;-91
2021/04/18 08:45:04;;;;;;;10.27;5.35;;;6.70;90.00;;;;;;4886616;29;20044;-92
2021/04/18 08:47:32;;;;;;;20.27;5.20;;;6.80;89.50;;;;;;4902391;29;20055;-91
2021/04/18 08:50:10;;;;;;;17.25;5.72;;;6.90;88.70;;;;;;4886076;29;20052;-93
2021/04/18 08:52:37;;;;;;;12.50;5.07;;;7.00;88.00;;;;;;4900845;29;20032;-93
2021/04/18 08:55:13;;;;;;;11.00;4.95;;;7.10;87.40;;;;;;4886838;29;20116;-91
2021/04/18 08:57:38;;;;;;;12.52;5.10;;;7.30;87.00;;;;;;4901327;29;20059;-92
2021/04/18 09:00:13;;;;;;;16.90;5.60;;;7.40;86.30;;;;;;4885827;29;20061;-94
2021/04/18 09:02:39;;;;;;;12.13;4.68;;;7.60;85.80;;;;;;4887890;29;20032;-92
2021/04/18 09:05:11;;;;;;;8.30;4.43;;;7.70;85.30;;;;;;4888026;29;20016;-93
2021/04/18 09:07:41;;;;;;;8.45;4.53;;;7.90;84.90;;;;;;4887693;29;20518;-94
2021/04/18 09:10:09;;;;;;;8.20;4.47;;;8.00;84.20;;;;;;4886710;29;20027;-91
2021/04/18 09:12:35;;;;;;;8.00;4.43;;;8.10;83.50;;;;;;4887819;29;20119;-93
2021/04/18 09:15:02;;;;;;;11.65;4.72;;;8.20;82.40;;;;;;4882951;29;20032;-91
2021/04/18 09:17:30;;;;;;;8.95;4.53;;;8.40;81.70;;;;;;4914064;29;20482;-90
2021/04/18 09:19:58;;;;;;;6.55;4.25;;;8.60;81.00;;;;;;4901167;29;20028;-92
2021/04/18 09:22:30;;;;;;;13.07;5.38;;;8.80;80.30;;;;;;4883217;29;20033;-91
2021/04/18 09:25:10;;;;;;;9.77;4.32;;;9.00;79.40;;;;;;4887107;29;20029;-92
2021/04/18 09:27:39;;;;;;;7.40;4.57;;;9.30;78.50;;;;;;4898016;29;20052;-92
2021/04/18 09:30:07;;;;;;;15.32;4.93;;;9.50;77.60;;;;;;4880515;29;20483;-92
2021/04/18 09:32:36;;;;;;;13.27;5.18;;;9.70;76.50;;;;;;4885183;29;20104;-93
2021/04/18 09:35:03;;;;;;;9.77;5.10;;;9.80;75.50;;;;;;4886896;29;20020;-92
2021/04/18 09:37:31;;;;;;;14.27;5.38;;;10.00;74.70;;;;;;4886967;29;20039;-93
2021/04/18 09:40:11;;;;;;;13.68;5.88;;;10.10;74.70;;;;;;4884472;29;20088;-92
2021/04/18 09:42:42;;;;;;;11.10;4.95;;;10.20;73.40;;;;;;4884964;29;20052;-92
2021/04/18 09:45:12;;;;;;;11.07;5.63;;;10.40;72.90;;;;;;4899726;29;20040;-93
2021/04/18 09:47:40;;;;;;;11.57;5.70;;;10.60;72.30;;;;;;4860787;29;20407;-93
2021/04/18 09:50:16;;;;;;;11.27;5.30;;;10.70;71.50;;;;;;4865223;29;20060;-93
2021/04/18 09:52:42;;;;;;;9.40;5.25;;;10.90;70.90;;;;;;4899955;29;20025;-92
2021/04/18 09:55:10;;;;;;;12.32;5.43;;;11.10;70.10;;;;;;4902801;29;20025;-92
2021/04/18 09:58:00;;;;;;;9.43;4.90;;;11.30;69.90;;;;;;4870309;29;20040;-93
2021/04/18 10:00:33;;;;;;;11.07;4.75;;;11.50;69.20;;;;;;4901883;29;20025;-90
2021/04/18 10:03:05;;;;;;;11.70;4.80;;;11.80;68.20;;;;;;4871030;29;20044;-92
2021/04/18 10:05:34;;;;;;;10.05;5.53;;;11.90;67.50;;;;;;4871231;29;20112;-92
2021/04/18 10:08:23;;;;;;;9.23;5.05;;;12.20;67.10;;;;;;4871637;29;20161;-90
2021/04/18 10:10:54;;;;;;;10.10;5.43;;;12.40;65.80;;;;;;4871242;29;20028;-91
2021/04/18 10:13:41;;;;;;;9.35;5.20;;;12.60;65.00;;;;;;4867817;29;20124;-90
2021/04/18 10:16:12;;;;;;;9.25;5.18;;;12.90;64.10;;;;;;4867773;29;20061;-90
2021/04/18 10:18:40;;;;;;;9.75;5.18;;;13.20;63.50;;;;;;4886020;29;20025;-92
2021/04/18 10:21:24;;;;;;;11.60;5.55;;;13.40;62.30;;;;;;4872554;29;20036;-93
2021/04/18 10:23:51;;;;;;;15.07;6.05;;;13.60;61.50;;;;;;4889149;29;20097;-92
2021/04/18 10:26:20;;;;;;;9.73;5.10;;;13.80;61.10;;;;;;4876867;29;20100;-92
2021/04/18 10:28:47;;;;;;;9.27;5.68;;;14.10;59.50;;;;;;4870315;29;20017;-92
2021/04/18 10:31:16;;;;;;;12.60;5.85;;;14.30;58.80;;;;;;4886333;29;20045;-90
2021/04/18 10:33:42;;;;;;;10.40;6.30;;;14.30;57.60;;;;;;4872930;29;20497;-89
2021/04/18 10:36:12;;;;;;;9.10;6.32;;;14.30;56.70;;;;;;4883418;29;20029;-91
2021/04/18 10:38:38;;;;;;;10.13;6.57;;;14.40;56.70;;;;;;4884570;29;20120;-89
2021/04/18 10:41:06;;;;;;;9.77;5.90;;;14.50;56.60;;;;;;4885853;29;20050;-90
2021/04/18 10:43:32;;;;;;;11.02;6.40;;;14.60;56.60;;;;;;4887893;29;20037;-90
2021/04/18 10:45:58;;;;;;;13.07;6.25;;;14.90;56.70;;;;;;4891597;29;20068;-90
2021/04/18 10:48:23;;;;;;;10.10;6.47;;;15.10;56.30;;;;;;4887687;29;20486;-91
2021/04/18 10:50:50;;;;;;;10.38;6.72;;;15.20;55.90;;;;;;4885517;29;20121;-91
2021/04/18 10:53:16;;;;;;;10.27;7.10;;;15.30;55.60;;;;;;4916146;29;20487;-91
2021/04/18 10:55:42;;;;;;;13.00;7.35;;;15.40;55.40;;;;;;4885888;29;20075;-91
2021/04/18 10:58:08;;;;;;;14.75;7.30;;;15.40;55.10;;;;;;4887018;29;20021;-90
2021/04/18 11:00:35;;;;;;;14.90;9.10;;;15.50;55.00;;;;;;4884625;29;20029;-90
2021/04/18 11:03:00;;;;;;;13.70;8.57;;;15.60;54.90;;;;;;4886722;29;20024;-91
2021/04/18 11:05:26;;;;;;;13.77;8.07;;;15.70;54.70;;;;;;4902774;29;20021;-91
2021/04/18 11:07:52;;;;;;;17.52;7.47;;;15.90;54.40;;;;;;4888138;29;20088;-90
2021/04/18 11:10:18;;;;;;;14.65;8.43;;;16.20;54.20;;;;;;4895377;29;20115;-91
2021/04/18 11:12:43;;;;;;;10.70;7.18;;;16.30;53.70;;;;;;4886842;29;20071;-91
2021/04/18 11:15:11;;;;;;;15.95;7.72;;;16.40;53.60;;;;;;4903699;29;20024;-89
2021/04/18 11:17:37;;;;;;;13.48;7.55;;;16.60;53.60;;;;;;4889741;29;20060;-90
2021/04/18 11:20:06;;;;;;;13.15;7.38;;;16.80;53.00;;;;;;4903818;29;20178;-91
2021/04/18 11:22:32;;;;;;;12.32;7.72;;;16.90;52.70;;;;;;4920659;29;20039;-90
2021/04/18 11:25:00;;;;;;;12.70;7.45;;;17.00;52.50;;;;;;4912065;29;20037;-90
2021/04/18 11:27:29;;;;;;;12.73;7.90;;;17.10;52.60;;;;;;4908525;29;20135;-90
2021/04/18 11:29:54;;;;;;;12.52;7.60;;;17.20;52.30;;;;;;4929259;29;20024;-90
2021/04/18 11:32:20;;;;;;;11.88;7.15;;;17.30;51.90;;;;;;4917421;29;20031;-92
2021/04/18 11:34:46;;;;;;;12.43;7.40;;;17.40;52.10;;;;;;4927123;29;20545;-92
2021/04/18 11:37:12;;;;;;;11.35;7.18;;;17.60;51.50;;;;;;4891216;29;20025;-92
2021/04/18 11:39:38;;;;;;;12.75;8.43;;;17.80;51.40;;;;;;4895777;29;20059;-91
2021/04/18 11:42:07;;;;;;;13.50;8.05;;;18.00;50.60;;;;;;4906519;29;20032;-91
2021/04/18 11:44:33;;;;;;;11.23;6.90;;;18.10;50.10;;;;;;4887606;29;20029;-91
2021/04/18 11:46:59;;;;;;;11.32;7.20;;;18.40;50.00;;;;;;4889689;29;20056;-92
2021/04/18 11:49:24;;;;;;;16.20;7.63;;;18.70;49.80;;;;;;4902879;29;20027;-91
2021/04/18 11:51:50;;;;;;;11.38;7.82;;;19.00;49.40;;;;;;4916122;29;20033;-90
2021/04/18 11:54:16;;;;;;;12.90;7.43;;;19.20;48.80;;;;;;4902736;29;20064;-89
2021/04/18 11:56:42;;;;;;;11.00;7.38;;;19.30;48.40;;;;;;4903478;29;20021;-93
2021/04/18 11:59:08;;;;;;;13.13;5.47;;;19.30;48.70;;;;;;4890004;29;20123;-91
2021/04/18 12:01:35;;;;;;;12.90;7.65;;;19.50;48.10;;;;;;4899950;29;20059;-90
2021/04/18 12:04:01;;;;;;;12.68;7.78;;;19.50;47.70;;;;;;4913755;29;20028;-91
2021/04/18 12:06:26;;;;;;;13.15;7.60;;;19.30;47.30;;;;;;4906137;29;20033;-90
2021/04/18 12:08:52;;;;;;;11.07;7.55;;;19.00;47.20;;;;;;4883879;29;20028;-91
2021/04/18 12:11:17;;;;;;;12.38;7.30;;;19.00;47.50;;;;;;4921754;29;20032;-91
2021/04/18 12:13:46;;;;;;;11.18;7.70;;;18.90;47.40;;;;;;4921296;29;20080;-89
2021/04/18 12:16:14;;;;;;;14.00;7.70;;;18.90;48.00;;;;;;4921744;29;20108;-89
2021/04/18 12:18:39;;;;;;;13.68;8.00;;;18.90;47.10;;;;;;4908356;29;20024;-90
2021/04/18 12:21:06;;;;;;;9.90;6.85;;;19.00;47.10;;;;;;4912147;29;20040;-90
2021/04/18 12:23:31;;;;;;;12.73;7.90;;;19.00;46.90;;;;;;4900067;29;20636;-92
2021/04/18 12:25:57;;;;;;;11.70;7.32;;;19.10;46.80;;;;;;4914637;29;20048;-91
2021/04/18 12:28:22;;;;;;;11.90;7.70;;;19.00;46.50;;;;;;4904303;29;20051;-91
2021/04/18 12:30:49;;;;;;;14.73;7.30;;;19.10;46.60;;;;;;4903864;29;20032;-91
2021/04/18 12:33:14;;;;;;;12.55;7.63;;;19.30;46.80;;;;;;4909269;29;20118;-92
2021/04/18 12:35:40;;;;;;;9.85;6.47;;;19.40;47.10;;;;;;4902323;29;20044;-90
2021/04/18 12:38:06;;;;;;;12.05;7.05;;;19.20;46.20;;;;;;4891777;29;20093;-91
2021/04/18 12:40:31;;;;;;;10.93;7.28;;;19.20;46.20;;;;;;4898665;29;20492;-90
2021/04/18 12:42:57;;;;;;;12.90;7.05;;;19.10;46.20;;;;;;4899631;29;20558;-90
2021/04/18 12:45:23;;;;;;;12.10;7.30;;;19.20;46.20;;;;;;4911760;29;20032;-93
2021/04/18 12:47:48;;;;;;;11.57;6.80;;;19.40;46.10;;;;;;4919968;29;20060;-92
2021/04/18 12:50:16;;;;;;;13.50;7.03;;;19.50;45.80;;;;;;4908789;29;20029;-93
2021/04/18 12:52:42;;;;;;;14.30;7.45;;;19.60;45.40;;;;;;4908412;29;20033;-90